Weather at Darbhanga Airport

Public forecast

Using degrees Celsius for public forecast. Weather courtesy of forecast.io.

Closest aviation weather report (METAR) to Darbhanga Airport

Closest report is Lok Nayak Jayaprakash Airport, 57.5 nm (106.5 km) SW. Retrieved 2020/11/23 18:30 UTC (9 minutes ago):

VEPT 231830Z 00000KT 2000 BR NSC 12/09 Q1016 NOSIG

Closest aviation forecast (TAF) to Darbhanga Airport

Forecast is more than 6 hours old.

Closest forecast is Lok Nayak Jayaprakash Airport, 57.5 nm (106.5 km) SW. Retrieved 2020/11/23 06:54 UTC (12 hours ago):

TAF VEPT 230500Z 2306/2412 27005KT 4000 HZ NSC BECMG 2313/2315 00000KT 2800 BR BECMG 2400/2402 1400 BR BECMG 2404/2406 VRB02KT 2800 BR BECMG 2408/2410 4000 HZ